createdAt,value
2023-03-21T00:00:43.584Z,9.79
2023-03-21T00:03:10.396Z,9.80
2023-03-21T00:05:40.915Z,9.81
2023-03-21T00:08:08.150Z,9.80
2023-03-21T00:10:43.113Z,9.80
2023-03-21T00:13:11.119Z,9.79
2023-03-21T00:15:44.256Z,9.80
2023-03-21T00:18:25.734Z,9.79
2023-03-21T00:21:29.406Z,9.79
2023-03-21T00:23:46.642Z,9.79
2023-03-21T00:26:14.735Z,9.78
2023-03-21T00:28:42.541Z,9.78
2023-03-21T00:31:09.884Z,9.76
2023-03-21T00:33:37.885Z,9.73
2023-03-21T00:36:06.015Z,9.72
2023-03-21T00:38:33.473Z,9.69
2023-03-21T00:41:04.697Z,9.67
2023-03-21T00:43:34.306Z,9.66
2023-03-21T00:46:00.948Z,9.66
2023-03-21T00:48:28.013Z,9.65
2023-03-21T00:50:57.322Z,9.65
2023-03-21T00:53:24.207Z,9.65
2023-03-21T00:55:51.901Z,9.67
2023-03-21T00:58:18.848Z,9.66
2023-03-21T01:00:46.157Z,9.66
2023-03-21T01:03:24.315Z,9.64
2023-03-21T01:05:52.286Z,9.64
2023-03-21T01:08:26.814Z,9.64
2023-03-21T01:11:02.384Z,9.64
2023-03-21T01:13:28.982Z,9.62
2023-03-21T01:15:58.440Z,9.63
2023-03-21T01:18:27.688Z,9.63
2023-03-21T01:20:55.795Z,9.64
2023-03-21T01:23:24.676Z,9.63
2023-03-21T01:25:53.064Z,9.61
2023-03-21T01:28:19.987Z,9.59
2023-03-21T01:30:47.002Z,9.59
2023-03-21T01:33:14.221Z,9.59
2023-03-21T01:35:49.120Z,9.57
2023-03-21T01:38:18.330Z,9.57
2023-03-21T01:40:47.947Z,9.56
2023-03-21T01:43:24.295Z,9.54
2023-03-21T01:46:21.645Z,9.53
2023-03-21T01:48:51.829Z,9.52
2023-03-21T01:51:19.659Z,9.51
2023-03-21T01:53:47.680Z,9.50
2023-03-21T01:56:22.725Z,9.48
2023-03-21T01:58:50.673Z,9.46
2023-03-21T02:01:17.566Z,9.44
2023-03-21T02:03:47.216Z,9.43
2023-03-21T02:06:16.330Z,9.42
2023-03-21T02:08:43.009Z,9.41
2023-03-21T02:11:09.839Z,9.42
2023-03-21T02:13:38.228Z,9.40
2023-03-21T02:16:12.605Z,9.41
2023-03-21T02:18:49.132Z,9.41
2023-03-21T02:21:42.300Z,9.43
2023-03-21T02:25:01.324Z,9.42
2023-03-21T02:27:34.660Z,9.39
2023-03-21T02:30:49.269Z,9.37
2023-03-21T02:33:38.007Z,9.35
2023-03-21T02:36:22.141Z,9.36
2023-03-21T02:38:56.004Z,9.34
2023-03-21T02:41:40.093Z,9.35
2023-03-21T02:44:12.729Z,9.34
2023-03-21T02:46:53.736Z,9.35
2023-03-21T02:49:24.594Z,9.34
2023-03-21T02:51:51.516Z,9.33
2023-03-21T02:54:35.387Z,9.31
2023-03-21T02:57:11.574Z,9.27
2023-03-21T02:59:51.570Z,9.26
2023-03-21T03:02:24.580Z,9.25
2023-03-21T03:04:51.146Z,9.25
2023-03-21T03:07:33.293Z,9.26
2023-03-21T03:10:22.888Z,9.27
2023-03-21T03:12:59.355Z,9.27
2023-03-21T03:15:35.612Z,9.26
2023-03-21T03:18:10.366Z,9.25
2023-03-21T03:20:48.016Z,9.24
2023-03-21T03:23:24.985Z,9.24
2023-03-21T03:25:58.226Z,9.25
2023-03-21T03:28:30.100Z,9.25
2023-03-21T03:31:08.838Z,9.25
2023-03-21T03:33:40.427Z,9.24
2023-03-21T03:36:21.519Z,9.22
2023-03-21T03:38:52.069Z,9.19
2023-03-21T03:41:25.797Z,9.18
2023-03-21T03:43:57.752Z,9.18
2023-03-21T03:46:30.394Z,9.17
2023-03-21T03:49:01.905Z,9.18
2023-03-21T03:51:34.289Z,9.16
2023-03-21T03:54:04.446Z,9.16
2023-03-21T03:56:33.209Z,9.15
2023-03-21T03:59:03.481Z,9.13
2023-03-21T04:01:30.295Z,9.12
2023-03-21T04:04:11.927Z,9.12
2023-03-21T04:06:38.831Z,9.12
2023-03-21T04:09:13.616Z,9.11
2023-03-21T04:11:46.942Z,9.09
2023-03-21T04:14:13.633Z,9.07
2023-03-21T04:16:40.255Z,9.06
2023-03-21T04:19:06.873Z,9.05
2023-03-21T04:21:33.560Z,9.06
2023-03-21T04:24:00.277Z,9.07
2023-03-21T04:26:27.001Z,9.07
2023-03-21T04:28:54.999Z,9.05
2023-03-21T04:31:25.971Z,9.04
2023-03-21T04:33:52.921Z,9.04
2023-03-21T04:36:19.606Z,9.05
2023-03-21T04:38:46.424Z,9.05
2023-03-21T04:41:12.983Z,9.04
2023-03-21T04:43:39.578Z,9.03
2023-03-21T04:46:07.720Z,9.04
2023-03-21T04:48:34.429Z,9.02
2023-03-21T04:51:01.190Z,9.01
2023-03-21T04:53:27.761Z,9.02
2023-03-21T04:55:55.615Z,9.00
2023-03-21T04:58:22.305Z,9.00
2023-03-21T05:00:48.931Z,9.00
2023-03-21T05:03:16.888Z,9.00
2023-03-21T05:05:43.528Z,9.00
2023-03-21T05:08:10.172Z,8.99
2023-03-21T05:10:36.830Z,9.00
2023-03-21T05:13:03.579Z,9.01
2023-03-21T05:15:30.252Z,8.99
2023-03-21T05:17:57.053Z,8.96
2023-03-21T05:20:25.015Z,8.96
2023-03-21T05:22:51.771Z,8.96
2023-03-21T05:25:19.152Z,8.96
2023-03-21T05:27:45.723Z,8.97
2023-03-21T05:30:15.092Z,8.99
2023-03-21T05:32:42.040Z,8.99
2023-03-21T05:35:09.377Z,8.99
2023-03-21T05:37:37.678Z,8.99
2023-03-21T05:40:05.553Z,9.00
2023-03-21T05:42:32.680Z,9.01
2023-03-21T05:44:59.279Z,9.03
2023-03-21T05:47:25.981Z,9.04
2023-03-21T05:49:52.675Z,9.07
2023-03-21T05:52:19.374Z,9.09
2023-03-21T05:54:47.829Z,9.11
2023-03-21T05:57:14.578Z,9.12
2023-03-21T05:59:41.371Z,9.14
2023-03-21T06:02:08.001Z,9.16
2023-03-21T06:04:34.618Z,9.19
2023-03-21T06:07:01.358Z,9.21
2023-03-21T06:09:27.990Z,9.22
2023-03-21T06:11:57.159Z,9.23
2023-03-21T06:14:24.777Z,9.25
2023-03-21T06:16:51.553Z,9.27
2023-03-21T06:19:18.242Z,9.27
2023-03-21T06:21:44.931Z,9.30
2023-03-21T06:24:11.653Z,9.31
2023-03-21T06:26:38.318Z,9.31
2023-03-21T06:29:06.298Z,9.31
2023-03-21T06:31:32.897Z,9.30
2023-03-21T06:33:59.546Z,9.32
2023-03-21T06:36:26.138Z,9.33
2023-03-21T06:38:52.912Z,9.33
2023-03-21T06:41:19.591Z,9.35
2023-03-21T06:43:46.374Z,9.38
2023-03-21T06:46:14.393Z,9.42
2023-03-21T06:48:41.144Z,9.44
2023-03-21T06:51:07.816Z,9.45
2023-03-21T06:53:36.080Z,9.48
2023-03-21T06:56:02.826Z,9.49
2023-03-21T06:58:29.637Z,9.50
2023-03-21T07:00:58.652Z,9.51
2023-03-21T07:03:26.799Z,9.57
2023-03-21T07:05:53.565Z,9.62
2023-03-21T07:08:20.555Z,9.66
2023-03-21T07:10:47.366Z,9.67
2023-03-21T07:13:14.672Z,9.68
2023-03-21T07:15:41.278Z,9.71
2023-03-21T07:18:09.331Z,9.78
2023-03-21T07:20:37.357Z,9.83
2023-03-21T07:23:04.600Z,9.88
2023-03-21T07:25:31.283Z,9.91
2023-03-21T07:27:57.970Z,9.95
2023-03-21T07:30:24.628Z,9.99
2023-03-21T07:32:51.278Z,10.02
2023-03-21T07:35:18.411Z,10.03
2023-03-21T07:37:46.405Z,10.05
2023-03-21T07:40:13.330Z,10.08
2023-03-21T07:42:41.375Z,10.12
2023-03-21T07:45:09.836Z,10.18
2023-03-21T07:47:36.671Z,10.22
2023-03-21T07:50:03.833Z,10.26
2023-03-21T07:52:30.674Z,10.32
2023-03-21T07:54:58.886Z,10.36
2023-03-21T07:57:25.555Z,10.38
2023-03-21T07:59:52.176Z,10.40
2023-03-21T08:02:18.877Z,10.42
2023-03-21T08:04:45.918Z,10.45
2023-03-21T08:07:13.135Z,10.48
2023-03-21T08:09:40.109Z,10.54
2023-03-21T08:12:08.179Z,10.58
2023-03-21T08:14:34.815Z,10.64
2023-03-21T08:17:01.470Z,10.67
2023-03-21T08:19:28.055Z,10.74
2023-03-21T08:21:54.796Z,10.78
2023-03-21T08:24:21.424Z,10.83
2023-03-21T08:26:48.034Z,10.87
2023-03-21T08:29:16.219Z,10.92
2023-03-21T08:31:42.825Z,10.96
2023-03-21T08:34:09.494Z,11.01
2023-03-21T08:36:36.903Z,11.05
2023-03-21T08:39:04.030Z,11.10
2023-03-21T08:41:30.877Z,11.15
2023-03-21T08:43:57.485Z,11.20
2023-03-21T08:46:25.714Z,11.25
2023-03-21T08:48:52.408Z,11.24
2023-03-21T08:51:19.140Z,11.24
2023-03-21T08:53:45.907Z,11.25
2023-03-21T08:56:12.876Z,11.26
2023-03-21T08:58:39.481Z,11.25
2023-03-21T09:01:06.543Z,11.27
2023-03-21T09:03:34.552Z,11.31
2023-03-21T09:06:01.127Z,11.32
2023-03-21T09:08:27.937Z,11.35
2023-03-21T09:10:55.043Z,11.35
2023-03-21T09:13:22.090Z,11.37
2023-03-21T09:15:49.197Z,11.37
2023-03-21T09:18:16.258Z,11.38
2023-03-21T09:20:45.697Z,11.38
2023-03-21T09:23:13.742Z,11.38
2023-03-21T09:25:40.927Z,11.40
2023-03-21T09:28:07.974Z,11.42
2023-03-21T09:30:36.156Z,11.46
2023-03-21T09:33:04.738Z,11.51
2023-03-21T09:35:31.608Z,11.56
2023-03-21T09:37:59.687Z,11.61
2023-03-21T09:40:43.857Z,11.67
2023-03-21T09:43:22.488Z,11.72
2023-03-21T09:45:57.462Z,11.76
2023-03-21T09:48:56.696Z,11.81
2023-03-21T09:51:27.609Z,11.88
2023-03-21T09:53:57.349Z,11.94
2023-03-21T09:56:25.074Z,11.99
2023-03-21T09:58:54.851Z,12.05
2023-03-21T10:01:26.010Z,12.11
2023-03-21T10:03:53.684Z,12.18
2023-03-21T10:06:22.141Z,12.28
2023-03-21T10:08:49.291Z,12.40
2023-03-21T10:11:19.723Z,12.49
2023-03-21T10:13:51.188Z,12.60
2023-03-21T10:16:23.215Z,12.72
2023-03-21T10:18:50.587Z,12.85
2023-03-21T10:21:43.399Z,12.97
2023-03-21T10:24:12.326Z,13.07
2023-03-21T10:26:40.700Z,13.10
2023-03-21T10:29:09.629Z,13.13
2023-03-21T10:31:36.560Z,13.14
2023-03-21T10:34:09.695Z,13.13
2023-03-21T10:36:36.392Z,13.15
2023-03-21T10:39:05.892Z,13.15
2023-03-21T10:41:33.293Z,13.16
2023-03-21T10:44:11.295Z,13.19
2023-03-21T10:46:38.472Z,13.20
2023-03-21T10:49:07.769Z,13.22
2023-03-21T10:51:37.667Z,13.21
2023-03-21T10:54:08.037Z,13.23
2023-03-21T10:56:38.319Z,13.23
2023-03-21T10:59:08.693Z,13.24
2023-03-21T11:01:39.064Z,13.20
2023-03-21T11:04:14.366Z,13.22
2023-03-21T11:06:42.934Z,13.25
2023-03-21T11:09:15.120Z,13.24
2023-03-21T11:11:50.850Z,13.24
2023-03-21T11:14:36.616Z,13.26
2023-03-21T11:17:18.679Z,13.27
2023-03-21T11:19:48.425Z,13.29
2023-03-21T11:22:15.744Z,13.30
2023-03-21T11:24:47.660Z,13.33
2023-03-21T11:27:14.335Z,13.36
2023-03-21T11:29:47.454Z,13.41
2023-03-21T11:32:21.108Z,13.45
2023-03-21T11:34:50.015Z,13.50
2023-03-21T11:37:24.906Z,13.55
2023-03-21T11:39:56.402Z,13.59
2023-03-21T11:42:30.815Z,13.65
2023-03-21T11:45:10.558Z,13.71
2023-03-21T11:47:37.335Z,13.77
2023-03-21T11:50:16.259Z,13.91
2023-03-21T11:52:52.219Z,14.12
2023-03-21T11:55:41.495Z,14.32
2023-03-21T11:58:32.023Z,14.52
2023-03-21T12:01:07.715Z,14.70
2023-03-21T12:04:07.559Z,14.84
2023-03-21T12:06:38.143Z,14.84
2023-03-21T12:09:27.912Z,14.81
2023-03-21T12:12:11.674Z,14.80
2023-03-21T12:14:44.046Z,14.82
2023-03-21T12:17:25.443Z,14.80
2023-03-21T12:20:14.384Z,14.82
2023-03-21T12:22:51.085Z,14.83
2023-03-21T12:25:22.944Z,14.85
2023-03-21T12:28:02.926Z,14.87
2023-03-21T12:30:38.497Z,14.89
2023-03-21T12:33:21.055Z,14.95
2023-03-21T12:35:59.440Z,15.00
2023-03-21T12:38:36.350Z,15.02
2023-03-21T12:41:18.549Z,15.06
2023-03-21T12:43:48.115Z,15.02
2023-03-21T12:46:22.545Z,14.96
2023-03-21T12:48:56.155Z,14.95
2023-03-21T12:51:29.056Z,14.94
2023-03-21T12:54:02.229Z,14.93
2023-03-21T12:56:32.780Z,14.96
2023-03-21T12:59:06.310Z,14.97
2023-03-21T13:01:36.768Z,14.93
2023-03-21T13:04:29.794Z,14.87
2023-03-21T13:07:00.536Z,14.83
2023-03-21T13:09:37.602Z,14.80
2023-03-21T13:12:21.956Z,14.75
2023-03-21T13:15:02.663Z,14.71
2023-03-21T13:17:35.733Z,14.67
2023-03-21T13:20:12.918Z,14.65
2023-03-21T13:22:39.582Z,14.62
2023-03-21T13:25:16.591Z,14.60
2023-03-21T13:27:43.500Z,14.57
2023-03-21T13:30:20.548Z,14.57
2023-03-21T13:32:49.585Z,14.57
2023-03-21T13:35:20.974Z,14.55
2023-03-21T13:37:52.257Z,14.54
2023-03-21T13:40:24.232Z,14.55
2023-03-21T13:42:53.325Z,14.56
2023-03-21T13:45:27.557Z,14.54
2023-03-21T13:47:56.447Z,14.56
2023-03-21T13:51:00.748Z,14.57
2023-03-21T13:53:32.481Z,14.60
2023-03-21T13:56:06.871Z,14.65
2023-03-21T13:58:37.062Z,14.65
2023-03-21T14:01:13.535Z,14.67
2023-03-21T14:03:41.797Z,14.68
2023-03-21T14:06:10.986Z,14.67
2023-03-21T14:08:40.700Z,14.66
2023-03-21T14:11:11.995Z,14.65
2023-03-21T14:13:50.386Z,14.64
2023-03-21T14:16:19.349Z,14.66
2023-03-21T14:18:55.274Z,14.62
2023-03-21T14:21:26.380Z,14.62
2023-03-21T14:24:00.661Z,14.63
2023-03-21T14:26:30.558Z,14.60
2023-03-21T14:28:57.942Z,14.57
2023-03-21T14:31:26.112Z,14.54
2023-03-21T14:33:56.509Z,14.52
2023-03-21T14:36:27.165Z,14.47
2023-03-21T14:39:03.892Z,14.45
2023-03-21T14:41:32.703Z,14.46
2023-03-21T14:44:11.063Z,14.48
2023-03-21T14:46:37.967Z,14.49
2023-03-21T14:49:19.263Z,14.48
2023-03-21T14:51:47.548Z,14.49
2023-03-21T14:54:16.219Z,14.51
2023-03-21T14:56:44.816Z,14.52
2023-03-21T14:59:14.425Z,14.56
2023-03-21T15:01:41.404Z,14.58
2023-03-21T15:04:08.333Z,14.60
2023-03-21T15:06:50.502Z,14.62
2023-03-21T15:09:22.205Z,14.62
2023-03-21T15:11:51.396Z,14.59
2023-03-21T15:14:21.033Z,14.59
2023-03-21T15:16:48.902Z,14.59
2023-03-21T15:19:19.380Z,14.58
2023-03-21T15:21:49.031Z,14.57
2023-03-21T15:24:22.150Z,14.52
2023-03-21T15:26:50.344Z,14.47
2023-03-21T15:29:18.129Z,14.42
2023-03-21T15:31:49.153Z,14.37
2023-03-21T15:34:22.877Z,14.35
2023-03-21T15:36:54.534Z,14.34
2023-03-21T15:39:22.597Z,14.33
2023-03-21T15:42:04.422Z,14.28
2023-03-21T15:44:32.172Z,14.26
2023-03-21T15:46:59.256Z,14.22
2023-03-21T15:49:28.574Z,14.19
2023-03-21T15:52:00.740Z,14.15
2023-03-21T15:54:31.358Z,14.09
2023-03-21T15:57:00.140Z,14.02
2023-03-21T15:59:35.048Z,13.99
2023-03-21T16:02:03.303Z,13.96
2023-03-21T16:04:30.047Z,13.93
2023-03-21T16:06:59.640Z,13.91
2023-03-21T16:09:26.702Z,13.89
2023-03-21T16:11:56.549Z,13.87
2023-03-21T16:14:24.078Z,13.87
2023-03-21T16:16:51.094Z,13.88
2023-03-21T16:19:17.909Z,13.87
2023-03-21T16:21:44.537Z,13.86
2023-03-21T16:24:11.765Z,13.83
2023-03-21T16:26:42.086Z,13.82
2023-03-21T16:29:11.999Z,13.82
2023-03-21T16:31:38.659Z,13.81
2023-03-21T16:34:05.287Z,13.80
2023-03-21T16:36:34.180Z,13.77
2023-03-21T16:39:00.742Z,13.74
2023-03-21T16:41:28.002Z,13.71
2023-03-21T16:43:55.207Z,13.69
2023-03-21T16:46:24.608Z,13.67
2023-03-21T16:48:53.819Z,13.64
2023-03-21T16:53:49.272Z,13.58
2023-03-21T16:56:19.780Z,13.56
2023-03-21T16:58:46.487Z,13.52
2023-03-21T17:01:14.859Z,13.50
2023-03-21T17:03:43.188Z,13.47
2023-03-21T17:06:14.456Z,13.46
2023-03-21T17:08:41.090Z,13.43
2023-03-21T17:11:09.347Z,13.40
2023-03-21T17:13:36.002Z,13.39
2023-03-21T17:16:02.827Z,13.37
2023-03-21T17:18:29.639Z,13.36
2023-03-21T17:20:57.645Z,13.33
2023-03-21T17:23:24.262Z,13.31
2023-03-21T17:25:50.845Z,13.28
2023-03-21T17:28:17.482Z,13.26
2023-03-21T17:30:44.553Z,13.25
2023-03-21T17:33:11.277Z,13.22
2023-03-21T17:35:38.066Z,13.21
2023-03-21T17:38:11.753Z,13.19
2023-03-21T17:40:38.732Z,13.17
2023-03-21T17:43:06.026Z,13.14
2023-03-21T17:45:32.827Z,13.12
2023-03-21T17:47:59.483Z,13.08
2023-03-21T17:50:30.819Z,13.07
2023-03-21T17:52:57.449Z,13.04
2023-03-21T17:55:25.876Z,13.04
2023-03-21T17:57:52.496Z,13.03
2023-03-21T18:00:21.934Z,13.01
2023-03-21T18:02:48.562Z,13.00
2023-03-21T18:05:15.662Z,12.99
2023-03-21T18:08:08.954Z,12.97
2023-03-21T18:10:31.872Z,12.96
2023-03-21T18:12:58.721Z,12.95
2023-03-21T18:15:30.240Z,12.93
2023-03-21T18:17:57.326Z,12.94
2023-03-21T18:20:25.216Z,12.91
2023-03-21T18:22:51.850Z,12.89
2023-03-21T18:25:18.585Z,12.88
2023-03-21T18:28:09.544Z,12.86
2023-03-21T18:30:53.555Z,12.85
2023-03-21T18:33:20.192Z,12.85
2023-03-21T18:35:47.145Z,12.82
2023-03-21T18:38:13.846Z,12.82
2023-03-21T18:40:40.846Z,12.80
2023-03-21T18:43:55.798Z,12.78
2023-03-21T18:45:55.916Z,12.75
2023-03-21T18:48:22.726Z,12.73
2023-03-21T18:50:49.522Z,12.72
2023-03-21T18:53:16.153Z,12.70
2023-03-21T18:55:46.694Z,12.70
2023-03-21T18:58:15.620Z,12.70
2023-03-21T19:00:43.162Z,12.68
2023-03-21T19:03:21.775Z,12.68
2023-03-21T19:05:58.628Z,12.68
2023-03-21T19:08:25.343Z,12.68
2023-03-21T19:10:51.957Z,12.68
2023-03-21T19:13:20.122Z,12.66
2023-03-21T19:15:49.554Z,12.66
2023-03-21T19:21:03.755Z,12.63
2023-03-21T19:23:40.793Z,12.62
2023-03-21T19:26:16.706Z,12.62
2023-03-21T19:28:44.738Z,12.62
2023-03-21T19:31:11.401Z,12.60
2023-03-21T19:33:38.282Z,12.59
2023-03-21T19:36:17.636Z,12.58
2023-03-21T19:38:47.668Z,12.56
2023-03-21T19:41:14.389Z,12.55
2023-03-21T19:43:52.804Z,12.55
2023-03-21T19:46:22.056Z,12.53
2023-03-21T19:48:48.944Z,12.53
2023-03-21T19:51:31.144Z,12.52
2023-03-21T19:53:58.315Z,12.50
2023-03-21T19:56:27.418Z,12.49
2023-03-21T19:58:54.543Z,12.47
2023-03-21T20:01:23.575Z,12.46
2023-03-21T20:03:50.749Z,12.46
2023-03-21T20:06:17.464Z,12.43
2023-03-21T20:11:30.746Z,12.40
2023-03-21T20:13:57.352Z,12.38
2023-03-21T20:16:25.497Z,12.36
2023-03-21T20:18:53.467Z,12.33
2023-03-21T20:21:25.409Z,12.31
2023-03-21T20:23:52.462Z,12.28
2023-03-21T20:26:19.117Z,12.28
2023-03-21T20:28:56.686Z,12.27
2023-03-21T20:31:34.163Z,12.24
2023-03-21T20:34:01.026Z,12.22
2023-03-21T20:36:43.893Z,12.22
2023-03-21T20:39:10.598Z,12.22
2023-03-21T20:41:38.177Z,12.21
2023-03-21T20:46:53.465Z,12.19
2023-03-21T20:49:20.620Z,12.16
2023-03-21T20:52:49.751Z,12.16
2023-03-21T20:54:34.143Z,12.14
2023-03-21T20:57:00.805Z,12.14
2023-03-21T20:59:28.302Z,12.12
2023-03-21T21:01:57.848Z,12.10
2023-03-21T21:04:42.829Z,12.10
2023-03-21T21:07:12.535Z,12.08
2023-03-21T21:09:39.152Z,12.07
2023-03-21T21:12:07.895Z,12.06
2023-03-21T21:14:35.612Z,12.04
2023-03-21T21:17:20.842Z,12.02
2023-03-21T21:19:51.007Z,12.01
2023-03-21T21:22:17.718Z,11.99
2023-03-21T21:24:44.662Z,11.98
2023-03-21T21:27:11.314Z,11.95
2023-03-21T21:29:38.656Z,11.93
2023-03-21T21:32:06.583Z,11.91
2023-03-21T21:34:33.186Z,11.89
2023-03-21T21:36:59.784Z,11.86
2023-03-21T21:39:26.438Z,11.84
2023-03-21T21:41:53.850Z,11.82
2023-03-21T21:44:20.504Z,11.78
2023-03-21T21:46:47.233Z,11.76
2023-03-21T21:49:15.295Z,11.74
2023-03-21T21:51:42.043Z,11.73
2023-03-21T21:54:08.769Z,11.71
2023-03-21T21:56:37.823Z,11.69
2023-03-21T21:59:04.639Z,11.66
2023-03-21T22:01:32.376Z,11.64
2023-03-21T22:03:59.189Z,11.63
2023-03-21T22:06:27.178Z,11.61
2023-03-21T22:08:53.807Z,11.58
2023-03-21T22:11:20.548Z,11.58
2023-03-21T22:13:47.646Z,11.57
2023-03-21T22:16:14.344Z,11.56
2023-03-21T22:18:41.001Z,11.56
2023-03-21T22:21:08.167Z,11.54
2023-03-21T22:23:36.240Z,11.53
2023-03-21T22:26:02.837Z,11.52
2023-03-21T22:28:30.526Z,11.49
2023-03-21T22:30:57.171Z,11.48
2023-03-21T22:33:23.840Z,11.45
2023-03-21T22:35:52.630Z,11.43
2023-03-21T22:38:19.605Z,11.41
2023-03-21T22:40:53.418Z,11.39
2023-03-21T22:43:20.071Z,11.37
2023-03-21T22:45:46.738Z,11.35
2023-03-21T22:48:13.447Z,11.33
2023-03-21T22:50:41.439Z,11.31
2023-03-21T22:53:08.977Z,11.29
2023-03-21T22:55:35.604Z,11.27
2023-03-21T22:58:03.644Z,11.24
2023-03-21T23:00:30.342Z,11.22
2023-03-21T23:02:57.038Z,11.21
2023-03-21T23:05:23.687Z,11.19
2023-03-21T23:07:50.322Z,11.16
2023-03-21T23:10:17.854Z,11.15
2023-03-21T23:12:44.681Z,11.15
2023-03-21T23:15:12.852Z,11.13
2023-03-21T23:17:39.621Z,11.10
2023-03-21T23:20:07.331Z,11.13
2023-03-21T23:22:35.020Z,11.12
2023-03-21T23:25:01.978Z,11.12
2023-03-21T23:27:28.955Z,11.12
2023-03-21T23:29:55.555Z,11.11
2023-03-21T23:32:23.906Z,11.08
2023-03-21T23:34:50.563Z,11.06
2023-03-21T23:37:17.186Z,11.04
2023-03-21T23:39:43.732Z,11.00
2023-03-21T23:42:10.662Z,10.96
2023-03-21T23:44:37.376Z,10.94
2023-03-21T23:47:04.050Z,10.89
2023-03-21T23:49:32.082Z,10.86
2023-03-21T23:51:58.734Z,10.80
2023-03-21T23:54:25.480Z,10.77
2023-03-21T23:56:52.095Z,10.72
2023-03-21T23:59:18.677Z,10.68
